Weather observations for the past three days for
Pampa, Perry Lefors Field Airport
Metric (Imperial)
Date Time (cdt) Wind (kph) Vis. (km) Weather Sky Cond. Temperature (ºC) Relative Humidity Wind Chill (°C) Heat Index (°C) Pressure Precipitation (cm)
Air Dwpt 6 hour altimeter (cm) sea level (mb) 1 hr 3 hr 6 hr
Max. Min.
04 16:50 SE 17 G 28 16.09 Partly Cloudy SCT110 38.6 14.5 24% 38 76.02 0.0
04 16:30 SE 17 16.09 Partly Cloudy SCT100 38.7 15.2 25% 39 76.02 0.0
04 16:10 E 15 16.09 Mostly Cloudy BKN090 BKN120 38 15.9 27% 38 76.05 0.0
04 15:50 SE 13 16.09 Mostly Cloudy SCT090 BKN120 37.7 15.7 27% 38 76.07 0.0
04 15:30 SE 17 16.09 Mostly Cloudy SCT090 BKN110 38.3 16.5 28% 39 76.07 0.0
04 15:10 SE 13 16.09 Partly Cloudy SCT100 37.9 16.5 28% 39 76.1 0.0
04 14:50 S 15 G 28 16.09 Fair CLR 37.9 16.7 29% 39 76.12 0.0
04 14:30 E 13 16.09 Fair CLR 38.1 16.9 29% 39 76.12 0.0
04 14:10 W 7 16.09 Fair CLR 37.2 15.3 27% 37 76.15 0.0
04 13:50 Calm 16.09 Fair CLR 36.9 16.4 30% 37 76.17 0.0
04 13:30 S 9 16.09 Fair CLR 36.6 16.1 30% 37 76.17 0.0
04 13:10 S 11 16.09 Fair CLR 36.6 16.2 30% 37 76.17 0.0
04 12:50 S 11 16.09 Fair CLR 36 17.1 36 23.3 33% 37 76.2 0.0
04 12:30 S 15 16.09 Fair CLR 35.5 17.1 33% 36 76.23 0.0
04 12:10 S 19 16.09 Fair CLR 34.8 17.6 36% 36 76.23 0.0
04 11:50 S 11 16.09 Fair CLR 34.5 18.3 38% 36 76.23 0.0
04 11:30 S 13 16.09 Fair CLR 33.2 18.1 41% 34 76.25 0.0
04 11:10 S 13 16.09 Fair CLR 32.4 18.7 44% 34 76.23 0.0
04 10:50 S 13 16.09 Fair CLR 31.4 19.7 50% 33 76.23 0.0
04 10:30 S 17 16.09 Fair CLR 30.6 19.9 53% 32 76.2 0.0
04 10:10 S 19 16.09 Fair CLR 29.7 20.3 57% 32 76.2 0.0
04 09:50 S 17 16.09 Fair CLR 28.7 21 63% 31 76.23 0.0
04 09:30 S 17 16.09 Fair CLR 27.6 21.5 69% 30 76.23 0.0
04 09:10 S 20 16.09 Fair CLR 26.6 21.7 75% 28 76.23 0.0
04 08:50 S 20 G 28 16.09 Fair CLR 25.6 21.8 80% 27 76.23 0.0
04 08:30 S 15 16.09 Fair CLR 24.9 21.8 83% 26 76.23 0.0
04 08:10 S 15 16.09 Fair CLR 23.6 21.6 89% 76.2 0.0
04 07:50 S 19 16.09 Fair CLR 23.5 21.5 89% 76.17 0.0
04 07:30 S 19 16.09 Fair CLR 23.4 21.5 89% 76.15 0.0
04 07:10 SE 19 16.09 Fair CLR 23.4 21.5 89% 76.15 0.0
04 06:50 SE 19 16.09 Fair CLR 23.5 21.5 27.3 23.5 89% 76.12 0.0
04 06:30 SE 20 16.09 Fair CLR 23.5 21.5 89% 76.12 0.0
04 06:10 SE 19 16.09 Fair CLR 23.6 21.5 88% 76.12 0.0
04 05:50 SE 20 16.09 Fair CLR 23.8 21.4 86% 76.12 0.0
04 05:30 SE 19 16.09 Fair CLR 24.2 21.2 83% 24 76.12 0.0
04 05:10 SE 20 16.09 Fair CLR 24.5 21.2 82% 25 76.12 0.0
04 04:50 SE 20 16.09 Fair CLR 24.6 21.1 81% 25 76.1 0.0
04 04:30 SE 22 16.09 Fair CLR 24.6 21 80% 25 76.1 0.0
04 04:10 SE 24 16.09 Fair CLR 24.6 20.7 79% 25 76.1 0.0
04 03:50 SE 20 16.09 Fair CLR 24.6 20.3 77% 25 76.1 0.0
04 03:30 SE 24 16.09 Fair CLR 24.7 19.7 74% 26 76.1 0.0
04 03:10 SE 22 16.09 Fair CLR 24.6 19 71% 26 76.1 0.0
04 02:50 SE 22 16.09 Fair CLR 25 18.5 67% 26 76.1 0.0
04 02:30 SE 22 16.09 Fair CLR 25.6 18.3 64% 27 76.12 0.0
04 02:10 SE 20 16.09 Fair CLR 25.7 17.9 62% 27 76.12 0.0
04 01:50 SE 20 16.09 Fair CLR 25.5 17.5 61% 26 76.15 0.0
04 01:30 SE 20 16.09 Fair CLR 26 17.3 59% 27 76.12 0.0
04 01:10 SE 22 16.09 Fair CLR 26.4 17.1 57% 27 76.12 0.0
04 00:50 S 28 G 35 16.09 Fair CLR 27.2 16.7 28.3 24.7 53% 28 76.12 0.0
04 00:30 SE 24 G 33 16.09 Fair CLR 27.6 16.7 51% 28 76.12 0.0
04 00:10 SE 26 G 35 16.09 Fair CLR 27.8 16.4 50% 28 76.12 0.0
03 23:50 SE 26 16.09 Fair CLR 27.7 16.8 52% 28 76.1 0.0
03 23:30 SE 28 16.09 Fair CLR 28.1 17 51% 29 76.1 0.0
03 23:10 SE 31 G 41 16.09 Fair CLR 28.3 16.2 48% 29 76.1 0.0
03 22:50 SE 28 16.09 Fair CLR 28.1 15.5 46% 28 76.07 0.0
03 22:30 SE 26 16.09 Fair CLR 27.9 16.2 49% 28 76.1 0.0
03 22:10 SE 19 16.09 Fair CLR 27 17 54% 28 76.1 0.0
03 21:50 SE 20 16.09 Fair CLR 26.7 16.8 55% 27 76.1 0.0
03 21:30 SE 17 16.09 Fair CLR 26 18.1 62% 27 76.07 0.0
03 21:10 S 15 16.09 Fair CLR 25.7 18.7 65% 27 76.07 0.0
03 20:50 SE 11 16.09 Fair CLR 26.7 18.1 59% 28 76.05 0.0
03 20:30 SE 9 16.09 Fair CLR 26.4 17.9 60% 27 76.05 0.0
03 20:10 S 6 16.09 Fair CLR 25.3 18 64% 26 76.05 0.0
03 19:50 SE 11 16.09 Fair CLR 25.2 17.9 64% 26 76.07 0.0
03 19:30 E 19 16.09 Fair CLR 24.9 18.2 66% 26 76.05 0.0
03 19:10 E 19 16.09 Partly Cloudy SCT110 25.1 18.8 68% 26 76.07 0.0
03 18:50 E 28 G 33 16.09 Light Rain SCT065 BKN110 25.7 18.2 39.2 24.8 63% 27 76.05 0.0 0.38 0.58
03 18:30 SE 24 11.27 Thunderstorm Light Rain in Vicinity SCT023 BKN100 OVC120 24.8 19 70% 26 76.07 0.0 0.38
03 18:10 SW 19 G 61 6.44 Thunderstorm Heavy Rain SCT024 BKN065 OVC100 25.4 16.6 58% 26 76.15 0.0 0.25
03 17:50 N 19 G 24 16.09 Thunderstorm Light Rain SCT025 SCT043 OVC110 25.8 18.5 64% 27 76.02 0.0 0.2
03 17:30 NW 37 G 54 11.27 Thunderstorm Rain in Vicinity and Breezy SCT030 SCT050 OVC100 26.2 18.3 62% 27 76.05 0.0 0.15
03 17:10 N 31 G 52 11.27 Thunderstorm Light Rain SCT014 SCT032 OVC100 28.1 17.2 52% 29 75.97 0.0 0.03
03 16:50 NE 19 G 30 16.09 Overcast OVC100 33.1 15.4 34% 33 75.97 0.0
03 16:30 N 11 16.09 Mostly Cloudy BKN100 36.1 14.8 28% 36 75.97 0.0
03 16:10 S 15 16.09 Overcast OVC100 38.6 14.7 24% 39 75.95 0.0
03 15:50 S 19 16.09 Overcast OVC110 37.2 13.3 24% 36 75.97 0.0
03 15:30 S 15 16.09 Mostly Cloudy BKN100 37.2 13.2 24% 36 76 0.0
03 15:10 S 19 16.09 Mostly Cloudy BKN100 38.6 13.9 23% 38 76.02 0.0
03 14:50 SE 6 16.09 Partly Cloudy SCT120 38 13.3 23% 37 76.02 0.0
03 14:30 S 19 16.09 Fair CLR 38.7 13.6 22% 38 76.05 0.0
03 14:10 SW 13 16.09 Fair CLR 38.6 14.1 23% 38 76.1 0.0
03 13:50 W 13 16.09 Fair CLR 36.9 13.7 25% 36 76.1 0.0
03 13:30 SW 17 G 28 16.09 Fair CLR 36.8 14.4 26% 36 76.12 0.0
03 13:10 SW 19 16.09 Fair CLR 37.1 14.6 26% 37 76.15 0.0
03 12:50 SW 15 G 35 16.09 Fair CLR 36.7 14.5 36.8 23.7 26% 36 76.17 0.0
03 12:30 SW 22 16.09 Fair CLR 35.7 14.5 28% 35 76.17 0.0
03 12:10 SW 28 G 35 16.09 Fair CLR 35.7 14.4 28% 35 76.2 0.0
03 11:50 SW 26 G 33 16.09 Fair CLR 35.2 14.7 29% 35 76.2 0.0
03 11:30 SW 24 G 37 16.09 Fair CLR 35.1 15.1 30% 35 76.2 0.0
03 11:10 SW 20 16.09 Fair CLR 33.6 15.6 34% 33 76.2 0.0
03 10:50 SW 26 G 33 16.09 Fair CLR 33 15.5 35% 33 76.2 0.0
03 10:30 SW 28 G 37 16.09 Fair CLR 32.1 15.5 37% 32 76.2 0.0
03 10:10 S 28 G 37 16.09 Fair CLR 31 15.5 39% 31 76.2 0.0
03 09:50 S 24 G 33 16.09 Fair CLR 30 15.9 43% 30 76.2 0.0
03 09:30 S 24 16.09 Fair CLR 28.6 16.4 48% 29 76.2 0.0
03 09:10 S 20 16.09 Fair CLR 27.1 16.8 53% 28 76.23 0.0
03 08:50 S 26 16.09 Fair CLR 27 16.8 54% 28 76.23 0.0
03 08:30 S 17 16.09 Fair CLR 26 16.9 57% 27 76.2 0.0
03 08:10 S 20 G 26 16.09 Fair CLR 25.5 17 59% 26 76.2 0.0
03 07:50 S 17 16.09 Fair CLR 24.6 17 63% 26 76.2 0.0
03 07:30 S 17 16.09 Fair CLR 24 16.8 64% 25 76.2 0.0
03 07:10 S 19 16.09 Fair CLR 23.8 16.8 65% 76.17 0.0
03 06:50 S 19 16.09 Fair CLR 23.6 16.7 27.6 23.6 65% 76.17 0.0
03 06:30 S 20 16.09 Fair CLR 23.9 16.6 64% 25 76.17 0.0
03 06:10 S 22 16.09 Fair CLR 24.1 16.6 63% 25 76.17 0.0
03 05:50 S 22 16.09 Fair CLR 24.4 16.5 61% 26 76.17 0.0
03 05:30 S 22 16.09 Fair CLR 24.6 16.5 61% 26 76.17 0.0
03 05:10 S 24 16.09 Fair CLR 24.7 16.4 60% 26 76.2 0.0
03 04:50 S 24 16.09 Fair CLR 24.8 16.3 59% 26 76.2 0.0
03 04:30 S 24 16.09 Fair CLR 25.1 16.2 58% 26 76.2 0.0
03 04:10 S 26 16.09 Fair CLR 25.2 16.1 57% 26 76.2 0.0
03 03:50 S 26 16.09 Fair CLR 25.3 16 56% 26 76.2 0.0
03 03:30 S 26 16.09 Fair CLR 25.6 16 55% 26 76.2 0.0
03 03:10 S 26 G 35 16.09 Fair CLR 26.2 16 53% 27 76.2 0.0
03 02:50 S 30 G 35 16.09 Fair CLR 26.4 15.7 52% 27 76.2 0.0
03 02:30 S 28 16.09 Fair CLR 26.5 15.6 51% 27 76.23 0.0
03 02:10 S 26 16.09 Fair CLR 26.5 15.4 51% 27 76.23 0.0
03 01:50 SE 24 G 35 16.09 Fair CLR 26.8 15 48% 27 76.23 0.0
03 01:30 S 26 G 33 16.09 Fair CLR 27.1 14.8 47% 27 76.2 0.0
03 01:10 SE 28 16.09 Fair CLR 27.5 14.5 45% 28 76.2 0.0
03 00:50 SE 26 16.09 Fair CLR 27.9 14.2 31.7 27.4 43% 28 76.2 0.0
03 00:30 S 30 G 39 16.09 Fair CLR 28.1 14 42% 28 76.17 0.0
03 00:10 S 28 G 37 16.09 Fair CLR 28.5 13.7 40% 28 76.2 0.0
02 23:50 S 28 G 39 16.09 Fair CLR 28.8 13.5 39% 28 76.17 0.0
02 23:30 SE 26 G 33 16.09 Fair CLR 29 13.4 38% 28 76.17 0.0
02 23:10 SE 26 16.09 Fair CLR 29.4 13.3 37% 29 76.17 0.0
02 22:50 SE 26 16.09 Fair CLR 30 13.3 36% 29 76.17 0.0
02 22:30 SE 26 16.09 Fair CLR 29.3 13.8 39% 29 76.17 0.0
02 22:10 SE 15 16.09 Fair CLR 27.5 15.2 47% 28 76.2 0.0
02 21:50 SE 13 16.09 Fair CLR 27.8 15.3 47% 28 76.17 0.0
02 21:30 SE 13 16.09 Fair CLR 28 15.2 46% 28 76.17 0.0
02 21:10 SE 13 16.09 Fair CLR 27.5 15.4 48% 28 76.17 0.0
02 20:50 SE 11 16.09 Fair CLR 27.9 15.5 47% 28 76.15 0.0
02 20:30 S 13 16.09 Fair CLR 27.8 15.8 48% 28 76.12 0.0
02 20:20 S 13 16.09 Fair CLR 28.7 15.5 45% 29 76.12 0.0
02 19:50 S 13 16.09 Fair CLR 30.2 15.7 41% 30 76.12 0.0
02 19:30 SW 13 16.09 Fair CLR 31.1 15.6 39% 31 76.12 0.0
02 19:10 S 9 16.09 Fair CLR 31.7 16 39% 32 76.12 0.0
02 18:50 Calm 16.09 Mostly Cloudy SCT050 SCT060 BKN100 29.4 17 38.1 28 47% 30 76.15 0.0
02 18:30 W 11 16.09 Light Rain SCT060 BKN070 OVC100 28.3 17.4 52% 29 76.17 0.0
02 18:10 SW 20 G 33 16.09 Overcast OVC100 30.9 16.4 42% 31 76.17 0.0
02 17:50 W 13 16.09 Overcast BKN100 OVC120 32.2 15.5 36% 32 76.17 0.0
02 17:30 S 15 16.09 Mostly Cloudy BKN110 35.6 12.8 25% 35 76.12 0.0
02 17:10 S 22 16.09 Partly Cloudy SCT120 36.2 13.3 25% 35 76.12 0.0
02 16:50 S 26 G 33 16.09 Partly Cloudy SCT110 36.4 13.1 25% 36 76.12 0.0
02 16:30 S 24 G 39 16.09 Partly Cloudy SCT095 38 13.7 23% 37 76.12 0.0
02 16:10 S 20 G 37 16.09 Partly Cloudy SCT095 37.6 13.9 24% 37 76.15 0.0
02 15:50 S 26 G 35 16.09 Partly Cloudy SCT085 36.9 14.1 26% 36 76.17 0.0
02 15:30 S 20 G 33 16.09 Partly Cloudy SCT085 37 14.4 26% 37 76.17 0.0
02 15:10 S 20 G 31 16.09 Partly Cloudy SCT085 37.5 14.4 25% 37 76.23 0.0
02 14:50 SW 20 G 33 16.09 Partly Cloudy SCT085 SCT120 37.7 14.9 26% 38 76.25 0.0
02 14:30 SW 26 G 37 16.09 Partly Cloudy SCT085 SCT100 36.9 14.7 27% 37 76.28 0.0
02 14:10 SW 26 G 35 16.09 Partly Cloudy SCT085 36.5 14.7 27% 36 76.28 0.0
02 13:50 S 22 G 35 16.09 Partly Cloudy SCT085 SCT100 36.6 14.9 27% 36 76.3 0.0
02 13:30 S 20 G 39 16.09 Fair CLR 36.6 15 28% 36 76.35 0.0
02 13:10 S 22 16.09 Fair CLR 36 15.2 29% 36 76.38 0.0
02 12:50 SW 22 G 35 16.09 Fair CLR 35.6 15.3 35.7 21.5 30% 35 76.38 0.0
02 12:30 SW 24 G 30 16.09 Fair CLR 35.4 15.5 30% 35 76.4 0.0
02 12:10 SW 24 16.09 Fair CLR 34.9 15.5 31% 35 76.43 0.0
02 11:50 SW 26 G 33 16.09 Fair CLR 34.3 15.5 32% 34 76.45 0.0
02 11:30 SW 20 G 28 16.09 Fair CLR 33.5 15.2 33% 33 76.45 0.0
02 11:10 SW 22 16.09 Fair CLR 32.6 14.9 34% 32 76.45 0.0
02 10:50 S 19 G 30 16.09 Fair CLR 32.1 14.6 35% 32 76.45 0.0
02 10:30 S 17 16.09 Fair CLR 31.9 14.5 35% 31 76.45 0.0
02 10:10 S 19 16.09 Partly Cloudy SCT110 31 14.2 36% 30 76.45 0.0
02 09:50 S 19 16.09 Partly Cloudy SCT110 30.4 14.1 37% 30 76.45 0.0
02 09:30 S 19 16.09 Partly Cloudy SCT110 29.2 13.8 39% 29 76.45 0.0
02 09:10 S 19 16.09 Overcast OVC110 28 14.2 43% 28 76.45 0.0
02 08:50 S 19 16.09 Overcast OVC110 27.1 14 45% 27 76.45 0.0
02 08:30 S 20 16.09 Overcast OVC110 26.9 14 45% 27 76.43 0.0
02 08:10 S 15 16.09 Partly Cloudy SCT110 24.8 14.6 53% 26 76.4 0.0
02 07:50 SE 13 16.09 Fair CLR 22.2 14.6 62% 76.4 0.0
02 07:30 S 13 16.09 Fair CLR 21.6 14.2 63% 76.4 0.0
02 07:10 S 13 16.09 Fair CLR 21.8 14 61% 76.38 0.0
02 06:50 S 13 16.09 Fair CLR 22.5 13.8 26.7 22.5 58% 76.38 0.0
02 06:30 S 15 16.09 Fair CLR 23.5 13.7 54% 76.38 0.0
02 06:10 S 19 16.09 Fair CLR 23.8 13.6 53% 76.38 0.0
02 05:50 S 19 16.09 Fair CLR 24.1 13.5 52% 25 76.38 0.0
02 05:30 S 20 16.09 Fair CLR 24.3 13.6 51% 26 76.35 0.0
02 05:10 S 20 16.09 Fair CLR 24.5 13.6 51% 26 76.38 0.0
02 04:50 S 22 16.09 Fair CLR 24.5 13.6 51% 26 76.38 0.0
02 04:30 S 20 16.09 Fair CLR 24.1 13.7 52% 25 76.35 0.0
02 04:10 S 20 16.09 Fair CLR 24 13.6 52% 25 76.38 0.0
02 03:50 S 19 16.09 Fair CLR 24.1 13.6 52% 25 76.38 0.0
02 03:30 S 19 16.09 Fair CLR 24.4 13.5 51% 26 76.38 0.0
02 03:10 S 19 16.09 Fair CLR 24.6 13.5 50% 26 76.38 0.0
02 02:50 S 20 16.09 Fair CLR 25 13.3 48% 26 76.38 0.0
02 02:30 S 22 16.09 Fair CLR 25.5 13.1 46% 26 76.38 0.0
02 02:10 S 20 16.09 Fair CLR 25.5 12.9 46% 26 76.38 0.0
02 01:50 S 20 16.09 Fair CLR 25.6 12.9 45% 26 76.38 0.0
02 01:30 S 20 16.09 Fair CLR 25.7 13 45% 26 76.38 0.0
02 01:10 S 19 16.09 Fair CLR 26.5 13 43% 27 76.38 0.0
02 00:50 S 19 16.09 Fair CLR 26.8 13 34 26.8 43% 27 76.38 0.0
02 00:30 S 19 16.09 Fair CLR 27 13 42% 27 76.38 0.0
02 00:10 S 20 16.09 Fair CLR 27.2 13 42% 27 76.38 0.0
01 23:30 S 24 16.09 Fair CLR 28 13 40% 28 76.38 0.0
01 23:10 SE 22 16.09 Fair CLR 28.2 13.1 39% 28 76.4 0.0
01 22:50 SE 28 16.09 Fair CLR 28.5 13.3 39% 28 76.38 0.0
01 22:30 SE 24 G 31 16.09 Fair CLR 28.6 13.5 40% 28 76.38 0.0
01 22:10 SE 26 G 31 16.09 Fair CLR 28.7 13.9 40% 28 76.38 0.0
01 21:50 SE 22 G 31 16.09 Fair CLR 28.8 14.2 41% 28 76.38 0.0
01 21:30 SE 19 16.09 Fair CLR 29 14.3 41% 29 76.35 0.0
01 21:10 SE 20 16.09 Fair CLR 29.5 14.3 39% 29 76.33 0.0
01 20:50 SE 19 16.09 Fair CLR 29.8 14.5 39% 29 76.3 0.0
01 20:30 SE 20 16.09 Partly Cloudy SCT095 30.2 14.6 39% 30 76.3 0.0
01 20:10 SE 19 16.09 Partly Cloudy SCT095 30.7 14.7 38% 30 76.28 0.0
01 19:50 SE 20 16.09 Fair CLR 31.5 14.7 36% 31 76.28 0.0
01 19:30 SE 19 16.09 Fair CLR 32.4 14.7 34% 32 76.28 0.0
01 19:10 SE 30 16.09 Fair CLR 33.4 14.8 33% 33 76.25 0.0
01 18:50 S 20 16.09 Fair CLR 34.1 14.5 36.9 33.2 31% 34 76.25 0.0
01 18:30 S 26 G 33 16.09 Partly Cloudy SCT085 34.6 14.5 30% 34 76.25 0.0
01 18:10 S 20 16.09 Partly Cloudy SCT085 34.9 14.7 30% 34 76.23 0.0
01 17:50 S 22 G 31 16.09 Partly Cloudy SCT085 35.6 14.6 28% 35 76.25 0.0
01 17:30 SE 22 G 41 16.09 Fair CLR 35.6 14.3 28% 35 76.25 0.0
Date Time (cdt) Wind (kph) Vis. (km) Weather Sky Cond. Air Dwpt Max. Min. Relative Humidity Wind Chill (°C) Heat Index (°C) altimeter (cm) sea level (mb) 1 hr 3 hr 6 hr
6 hour
Temperature (ºC) Pressure Precipitation (cm)